createdAt,value
2022-10-17T00:00:45.351Z,6.00
2022-10-17T00:03:02.335Z,6.35
2022-10-17T00:05:20.233Z,6.43
2022-10-17T00:07:37.407Z,5.57
2022-10-17T00:09:54.327Z,5.32
2022-10-17T00:12:11.213Z,5.20
2022-10-17T00:14:29.160Z,4.88
2022-10-17T00:16:46.330Z,4.78
2022-10-17T00:19:03.738Z,4.22
2022-10-17T00:21:20.580Z,4.20
2022-10-17T00:23:37.468Z,3.45
2022-10-17T00:25:54.556Z,3.58
2022-10-17T00:28:11.521Z,3.30
2022-10-17T00:30:28.551Z,3.35
2022-10-17T00:32:45.447Z,3.10
2022-10-17T00:35:02.342Z,2.85
2022-10-17T00:37:19.292Z,3.40
2022-10-17T00:39:36.175Z,3.30
2022-10-17T00:41:53.164Z,2.97
2022-10-17T00:44:10.088Z,3.75
2022-10-17T00:46:26.943Z,3.60
2022-10-17T00:48:43.951Z,4.03
2022-10-17T00:51:00.867Z,3.63
2022-10-17T00:53:21.007Z,3.90
2022-10-17T00:55:37.860Z,4.43
2022-10-17T00:57:54.829Z,3.90
2022-10-17T01:00:11.707Z,3.85
2022-10-17T01:02:28.907Z,3.42
2022-10-17T01:04:45.964Z,3.78
2022-10-17T01:07:03.063Z,3.55
2022-10-17T01:09:20.012Z,3.75
2022-10-17T01:11:36.937Z,3.85
2022-10-17T01:13:53.846Z,4.00
2022-10-17T01:16:10.824Z,3.50
2022-10-17T01:18:27.676Z,4.05
2022-10-17T01:20:44.573Z,3.47
2022-10-17T01:23:01.493Z,3.75
2022-10-17T01:25:18.342Z,3.08
2022-10-17T01:27:35.316Z,3.33
2022-10-17T01:29:52.156Z,2.78
2022-10-17T01:32:08.975Z,2.92
2022-10-17T01:34:25.827Z,2.80
2022-10-17T01:36:42.677Z,2.90
2022-10-17T01:38:59.611Z,2.92
2022-10-17T01:41:16.431Z,2.90
2022-10-17T01:43:33.294Z,3.47
2022-10-17T01:45:50.151Z,3.15
2022-10-17T01:48:07.020Z,3.47
2022-10-17T01:50:23.912Z,3.10
2022-10-17T01:52:40.726Z,2.95
2022-10-17T01:54:57.646Z,3.08
2022-10-17T01:57:14.561Z,2.83
2022-10-17T01:59:31.419Z,2.70
2022-10-17T02:01:48.327Z,2.70
2022-10-17T02:04:05.391Z,2.58
2022-10-17T02:06:22.351Z,2.42
2022-10-17T02:08:39.220Z,2.60
2022-10-17T02:10:56.094Z,2.13
2022-10-17T02:13:13.103Z,2.20
2022-10-17T02:15:30.097Z,2.30
2022-10-17T02:17:46.926Z,2.63
2022-10-17T02:20:03.748Z,2.20
2022-10-17T02:22:20.672Z,2.40
2022-10-17T02:24:37.553Z,2.50
2022-10-17T02:26:54.429Z,2.10
2022-10-17T02:29:11.313Z,2.42
2022-10-17T02:31:28.194Z,2.55
2022-10-17T02:33:45.121Z,2.90
2022-10-17T02:36:02.021Z,2.30
2022-10-17T02:38:18.902Z,2.67
2022-10-17T02:40:35.872Z,2.53
2022-10-17T02:42:52.790Z,3.08
2022-10-17T02:45:09.699Z,2.80
2022-10-17T02:47:26.577Z,2.60
2022-10-17T02:49:43.527Z,2.50
2022-10-17T02:52:00.425Z,2.70
2022-10-17T02:54:17.364Z,2.75
2022-10-17T02:56:34.365Z,2.38
2022-10-17T02:58:51.225Z,2.55
2022-10-17T03:01:08.130Z,2.97
2022-10-17T03:03:25.077Z,2.75
2022-10-17T03:05:44.833Z,2.33
2022-10-17T03:08:01.721Z,2.20
2022-10-17T03:10:18.637Z,1.83
2022-10-17T03:12:35.546Z,2.30
2022-10-17T03:14:52.429Z,2.10
2022-10-17T03:17:09.302Z,2.47
2022-10-17T03:19:26.326Z,2.17
2022-10-17T03:21:43.172Z,2.25
2022-10-17T03:24:00.113Z,3.00
2022-10-17T03:26:16.957Z,2.30
2022-10-17T03:28:33.876Z,2.65
2022-10-17T03:30:50.788Z,2.58
2022-10-17T03:33:07.743Z,2.65
2022-10-17T03:35:24.859Z,2.88
2022-10-17T03:37:41.759Z,2.65
2022-10-17T03:39:58.616Z,3.17
2022-10-17T03:42:15.467Z,2.20
2022-10-17T03:44:32.430Z,2.55
2022-10-17T03:46:49.316Z,2.65
2022-10-17T03:49:06.181Z,2.15
2022-10-17T03:51:23.094Z,2.67
2022-10-17T03:53:40.198Z,2.25
2022-10-17T03:55:57.037Z,2.17
2022-10-17T03:58:13.921Z,2.20
2022-10-17T04:00:30.827Z,2.22
2022-10-17T04:02:47.662Z,2.55
2022-10-17T04:05:04.516Z,2.10
2022-10-17T04:07:21.414Z,2.05
2022-10-17T04:09:38.285Z,2.28
2022-10-17T04:11:55.173Z,2.50
2022-10-17T04:14:12.061Z,2.10
2022-10-17T04:16:29.046Z,2.60
2022-10-17T04:18:45.878Z,2.28
2022-10-17T04:21:02.874Z,2.60
2022-10-17T04:23:19.743Z,2.63
2022-10-17T04:25:36.827Z,2.30
2022-10-17T04:27:53.708Z,2.30
2022-10-17T04:30:10.591Z,2.10
2022-10-17T04:32:27.634Z,2.15
2022-10-17T04:34:44.716Z,2.28
2022-10-17T04:37:01.679Z,2.15
2022-10-17T04:39:18.535Z,2.30
2022-10-17T04:41:35.381Z,2.40
2022-10-17T04:43:52.494Z,2.88
2022-10-17T04:46:09.435Z,2.35
2022-10-17T04:48:26.275Z,3.10
2022-10-17T04:50:43.113Z,2.60
2022-10-17T04:53:00.108Z,2.58
2022-10-17T04:55:17.069Z,2.30
2022-10-17T04:57:34.157Z,2.67
2022-10-17T04:59:51.018Z,2.50
2022-10-17T05:02:07.855Z,2.75
2022-10-17T05:04:24.975Z,3.13
2022-10-17T05:06:41.915Z,2.15
2022-10-17T05:08:58.802Z,2.40
2022-10-17T05:11:15.812Z,1.90
2022-10-17T05:13:32.687Z,2.20
2022-10-17T05:15:49.552Z,2.10
2022-10-17T05:18:06.422Z,2.60
2022-10-17T05:20:23.273Z,2.10
2022-10-17T05:22:42.037Z,2.70
2022-10-17T05:24:59.417Z,2.75
2022-10-17T05:27:16.293Z,2.40
2022-10-17T05:29:33.164Z,3.60
2022-10-17T05:31:49.997Z,2.90
2022-10-17T05:34:09.070Z,3.13
2022-10-17T05:36:28.456Z,2.85
2022-10-17T05:38:45.416Z,2.80
2022-10-17T05:41:02.314Z,2.70
2022-10-17T05:43:19.170Z,2.55
2022-10-17T05:45:36.046Z,2.90
2022-10-17T05:47:53.008Z,2.50
2022-10-17T05:50:09.986Z,2.90
2022-10-17T05:52:26.951Z,2.80
2022-10-17T05:54:44.028Z,2.70
2022-10-17T05:57:01.173Z,2.30
2022-10-17T05:59:18.133Z,2.35
2022-10-17T06:01:35.171Z,2.60
2022-10-17T06:03:52.116Z,3.00
2022-10-17T06:06:09.142Z,2.60
2022-10-17T06:08:26.107Z,2.60
2022-10-17T06:10:43.003Z,2.40
2022-10-17T06:12:59.881Z,2.70
2022-10-17T06:15:16.751Z,2.60
2022-10-17T06:17:33.608Z,2.70
2022-10-17T06:19:50.486Z,2.63
2022-10-17T06:22:07.475Z,2.85
2022-10-17T06:24:24.325Z,3.20
2022-10-17T06:26:41.164Z,3.25
2022-10-17T06:28:58.072Z,2.95
2022-10-17T06:31:14.914Z,3.20
2022-10-17T06:33:31.738Z,3.20
2022-10-17T06:35:48.592Z,3.92
2022-10-17T06:38:05.395Z,3.60
2022-10-17T06:40:22.255Z,3.85
2022-10-17T06:42:39.129Z,3.80
2022-10-17T06:44:55.981Z,3.53
2022-10-17T06:47:14.338Z,3.70
2022-10-17T06:49:33.460Z,3.78
2022-10-17T06:51:50.506Z,4.47
2022-10-17T06:54:07.338Z,4.00
2022-10-17T06:56:24.326Z,4.25
2022-10-17T06:58:41.173Z,4.00
2022-10-17T07:01:00.797Z,3.50
2022-10-17T07:03:18.098Z,3.90
2022-10-17T07:05:34.929Z,4.10
2022-10-17T07:07:52.043Z,3.80
2022-10-17T07:10:09.004Z,3.60
2022-10-17T07:12:25.855Z,3.95
2022-10-17T07:14:42.790Z,3.63
2022-10-17T07:16:59.732Z,3.65
2022-10-17T07:19:16.603Z,3.97
2022-10-17T07:21:36.563Z,3.88
2022-10-17T07:23:56.001Z,3.72
2022-10-17T07:26:12.837Z,3.50
2022-10-17T07:28:29.729Z,3.70
2022-10-17T07:30:50.620Z,4.22
2022-10-17T07:33:10.503Z,4.80
2022-10-17T07:35:27.351Z,4.30
2022-10-17T07:37:44.168Z,4.32
2022-10-17T07:40:01.029Z,4.22
2022-10-17T07:42:17.842Z,3.80
2022-10-17T07:44:34.706Z,3.72
2022-10-17T07:46:51.564Z,3.50
2022-10-17T07:49:08.394Z,3.80
2022-10-17T07:51:25.251Z,3.20
2022-10-17T07:53:43.924Z,3.20
2022-10-17T07:56:03.329Z,3.42
2022-10-17T07:58:20.194Z,3.10
2022-10-17T08:00:37.426Z,3.25
2022-10-17T08:02:54.364Z,2.85
2022-10-17T08:05:11.425Z,3.10
2022-10-17T08:07:29.439Z,2.97
2022-10-17T08:09:46.434Z,2.90
2022-10-17T08:12:03.289Z,2.70
2022-10-17T08:14:20.147Z,2.60
2022-10-17T08:16:37.003Z,2.50
2022-10-17T08:18:53.869Z,2.65
2022-10-17T08:21:10.703Z,2.80
2022-10-17T08:23:27.542Z,3.10
2022-10-17T08:25:44.365Z,2.90
2022-10-17T08:28:01.279Z,2.95
2022-10-17T08:30:18.281Z,2.95
2022-10-17T08:32:35.268Z,2.97
2022-10-17T08:34:52.182Z,3.20
2022-10-17T08:39:25.929Z,2.92
2022-10-17T08:41:42.880Z,3.00
2022-10-17T08:43:59.736Z,2.90
2022-10-17T08:46:16.568Z,2.72
2022-10-17T08:48:33.450Z,3.00
2022-10-17T08:50:50.309Z,2.75
2022-10-17T08:53:07.176Z,3.10
2022-10-17T08:55:24.000Z,3.30
2022-10-17T08:57:40.873Z,3.33
2022-10-17T08:59:57.694Z,2.85
2022-10-17T09:02:14.908Z,2.97
2022-10-17T09:06:53.553Z,3.42
2022-10-17T09:09:10.356Z,3.58
2022-10-17T09:11:27.237Z,3.35
2022-10-17T09:13:44.094Z,3.50
2022-10-17T09:16:00.909Z,4.10
2022-10-17T09:18:21.118Z,3.80
2022-10-17T09:20:39.068Z,4.20
2022-10-17T09:25:14.113Z,3.95
2022-10-17T09:27:31.443Z,3.70
2022-10-17T09:29:48.555Z,3.78
2022-10-17T09:32:05.371Z,4.05
2022-10-17T09:34:25.240Z,3.95
2022-10-17T09:36:43.451Z,4.13
2022-10-17T09:39:00.333Z,4.25
2022-10-17T09:41:43.006Z,4.18
2022-10-17T09:43:53.916Z,3.97
2022-10-17T09:46:10.868Z,3.92
2022-10-17T09:48:27.699Z,3.90
2022-10-17T09:50:44.566Z,4.20
2022-10-17T09:53:01.381Z,3.75
2022-10-17T09:55:18.284Z,3.83
2022-10-17T09:57:35.167Z,3.83
2022-10-17T09:59:52.078Z,3.78
2022-10-17T10:02:09.106Z,3.80
2022-10-17T10:04:30.234Z,3.88
2022-10-17T10:06:50.532Z,3.60
2022-10-17T10:09:07.373Z,3.40
2022-10-17T10:11:24.167Z,3.55
2022-10-17T10:13:41.039Z,3.60
2022-10-17T10:15:57.868Z,3.60
2022-10-17T10:18:14.681Z,3.05
2022-10-17T10:20:31.552Z,3.80
2022-10-17T10:22:48.433Z,3.30
2022-10-17T10:25:05.318Z,3.35
2022-10-17T10:27:22.205Z,3.63
2022-10-17T10:29:39.146Z,3.53
2022-10-17T10:31:56.003Z,3.78
2022-10-17T10:34:12.847Z,3.25
2022-10-17T10:36:29.745Z,3.45
2022-10-17T10:38:46.570Z,3.45
2022-10-17T10:41:03.422Z,3.53
2022-10-17T10:43:20.303Z,3.50
2022-10-17T10:45:52.568Z,3.30
2022-10-17T10:48:09.481Z,3.60
2022-10-17T10:50:26.302Z,3.63
2022-10-17T10:52:43.178Z,3.20
2022-10-17T10:54:59.995Z,3.17
2022-10-17T10:57:16.903Z,3.33
2022-10-17T10:59:33.787Z,3.70
2022-10-17T11:01:50.625Z,3.38
2022-10-17T11:04:07.484Z,3.50
2022-10-17T11:06:24.347Z,3.72
2022-10-17T11:08:41.168Z,3.08
2022-10-17T11:10:58.021Z,3.50
2022-10-17T11:13:14.869Z,3.25
2022-10-17T11:15:31.773Z,3.63
2022-10-17T11:17:48.609Z,3.50
2022-10-17T11:20:05.469Z,3.40
2022-10-17T11:22:24.064Z,3.90
2022-10-17T11:24:43.594Z,3.60
2022-10-17T11:27:00.417Z,3.35
2022-10-17T11:29:17.263Z,3.20
2022-10-17T11:31:34.263Z,3.55
2022-10-17T11:33:51.165Z,3.13
2022-10-17T11:36:08.015Z,3.10
2022-10-17T11:38:24.885Z,3.70
2022-10-17T11:40:41.816Z,3.65
2022-10-17T11:42:58.636Z,3.47
2022-10-17T11:45:15.497Z,3.70
2022-10-17T11:47:32.316Z,3.58
2022-10-17T11:49:51.076Z,3.22
2022-10-17T11:52:08.518Z,3.58
2022-10-17T11:54:25.337Z,3.60
2022-10-17T11:56:42.999Z,3.70
2022-10-17T11:58:59.986Z,3.55
2022-10-17T12:01:16.912Z,4.15
2022-10-17T12:03:33.787Z,3.72
2022-10-17T12:05:50.603Z,3.40
2022-10-17T12:08:07.446Z,3.60
2022-10-17T12:10:24.334Z,3.70
2022-10-17T12:12:41.190Z,3.70
2022-10-17T12:14:58.033Z,3.85
2022-10-17T12:17:15.018Z,4.00
2022-10-17T12:19:31.922Z,3.90
2022-10-17T12:21:48.808Z,3.22
2022-10-17T12:24:05.650Z,3.42
2022-10-17T12:26:22.514Z,3.45
2022-10-17T12:28:39.847Z,3.70
2022-10-17T12:30:57.122Z,3.70
2022-10-17T12:35:31.177Z,3.65
2022-10-17T12:37:48.037Z,3.75
2022-10-17T12:40:04.850Z,3.58
2022-10-17T12:42:21.659Z,4.18
2022-10-17T12:44:38.516Z,4.00
2022-10-17T12:46:55.396Z,3.40
2022-10-17T12:49:12.314Z,4.15
2022-10-17T12:51:37.818Z,3.42
2022-10-17T12:53:54.960Z,3.55
2022-10-17T12:56:11.783Z,3.67
2022-10-17T12:58:28.753Z,3.58
2022-10-17T13:00:59.510Z,3.35
2022-10-17T13:03:22.429Z,3.40
2022-10-17T13:05:39.243Z,3.53
2022-10-17T13:07:56.050Z,3.17
2022-10-17T13:10:14.876Z,3.70
2022-10-17T13:12:32.390Z,3.28
2022-10-17T13:14:49.334Z,3.28
2022-10-17T13:17:06.247Z,3.63
2022-10-17T13:19:23.207Z,3.25
2022-10-17T13:21:40.157Z,3.92
2022-10-17T13:23:57.160Z,3.30
2022-10-17T13:26:14.026Z,3.60
2022-10-17T13:28:30.870Z,3.78
2022-10-17T13:30:49.590Z,3.45
2022-10-17T13:33:06.778Z,3.67
2022-10-17T13:35:27.847Z,3.92
2022-10-17T13:37:59.147Z,3.97
2022-10-17T13:40:40.409Z,3.58
2022-10-17T13:42:53.079Z,3.50
2022-10-17T13:45:09.882Z,3.70
2022-10-17T13:47:26.714Z,3.10
2022-10-17T13:49:43.599Z,3.15
2022-10-17T13:52:00.418Z,2.70
2022-10-17T13:54:17.345Z,2.70
2022-10-17T13:56:34.161Z,3.15
2022-10-17T13:58:51.003Z,2.78
2022-10-17T14:01:07.853Z,3.03
2022-10-17T14:03:31.237Z,2.75
2022-10-17T14:05:53.446Z,2.95
2022-10-17T14:08:12.412Z,2.95
2022-10-17T14:10:31.294Z,2.90
2022-10-17T14:12:50.454Z,2.45
2022-10-17T14:15:10.492Z,2.67
2022-10-17T14:17:28.443Z,2.50
2022-10-17T14:19:51.455Z,3.10
2022-10-17T14:22:12.590Z,2.50
2022-10-17T14:24:29.503Z,2.90
2022-10-17T14:26:46.334Z,2.60
2022-10-17T14:29:03.239Z,2.53
2022-10-17T14:31:20.160Z,2.63
2022-10-17T14:33:38.551Z,2.85
2022-10-17T14:35:58.381Z,3.22
2022-10-17T14:38:15.204Z,2.90
2022-10-17T14:40:32.064Z,2.90
2022-10-17T14:42:48.882Z,2.83
2022-10-17T14:45:05.785Z,3.20
2022-10-17T14:47:42.083Z,2.70
2022-10-17T14:49:59.456Z,2.90
2022-10-17T14:52:18.359Z,2.70
2022-10-17T14:54:35.766Z,3.20
2022-10-17T14:56:52.596Z,3.05
2022-10-17T14:59:12.534Z,3.55
2022-10-17T15:01:32.717Z,2.58
2022-10-17T15:03:49.711Z,3.30
2022-10-17T15:06:06.569Z,3.10
2022-10-17T15:08:23.574Z,2.85
2022-10-17T15:10:40.433Z,2.92
2022-10-17T15:12:59.319Z,3.10
2022-10-17T15:15:26.986Z,3.40
2022-10-17T15:20:00.752Z,3.40
2022-10-17T15:22:17.560Z,3.10
2022-10-17T15:24:34.425Z,3.50
2022-10-17T15:26:51.425Z,3.28
2022-10-17T15:29:08.375Z,3.85
2022-10-17T15:31:25.292Z,3.80
2022-10-17T15:33:42.156Z,3.90
2022-10-17T15:38:20.677Z,3.33
2022-10-17T15:40:40.134Z,3.78
2022-10-17T15:43:01.630Z,3.70
2022-10-17T15:45:18.480Z,3.67
2022-10-17T15:47:35.399Z,3.90
2022-10-17T15:49:52.403Z,3.80
2022-10-17T15:52:09.280Z,3.88
2022-10-17T15:54:26.155Z,4.07
2022-10-17T15:56:42.986Z,4.15
2022-10-17T15:58:59.834Z,3.90
2022-10-17T16:01:16.728Z,3.97
2022-10-17T16:03:33.659Z,4.05
2022-10-17T16:05:50.473Z,4.22
2022-10-17T16:08:07.489Z,3.97
2022-10-17T16:10:24.307Z,5.28
2022-10-17T16:12:41.309Z,6.00
2022-10-17T16:14:58.162Z,5.07
2022-10-17T16:17:15.016Z,5.72
2022-10-17T16:19:31.921Z,4.93
2022-10-17T16:21:48.945Z,5.10
2022-10-17T16:24:05.798Z,4.63
2022-10-17T16:26:22.787Z,5.18
2022-10-17T16:28:43.787Z,5.28
2022-10-17T16:31:03.012Z,4.30
2022-10-17T16:33:19.977Z,4.63
2022-10-17T16:35:37.701Z,5.05
2022-10-17T16:37:54.763Z,4.90
2022-10-17T16:40:11.642Z,4.63
2022-10-17T16:42:28.667Z,4.80
2022-10-17T16:44:45.712Z,5.20
2022-10-17T16:47:02.734Z,4.93
2022-10-17T16:49:19.716Z,5.43
2022-10-17T16:51:37.526Z,5.05
2022-10-17T16:53:54.605Z,5.13
2022-10-17T16:56:11.468Z,5.45
2022-10-17T16:58:28.309Z,5.05
2022-10-17T17:00:45.213Z,4.90
2022-10-17T17:03:02.126Z,5.70
2022-10-17T17:05:18.994Z,5.70
2022-10-17T17:07:35.869Z,5.18
2022-10-17T17:09:52.706Z,5.60
2022-10-17T17:12:09.646Z,5.38
2022-10-17T17:14:26.545Z,5.43
2022-10-17T17:16:43.468Z,6.13
2022-10-17T17:19:00.298Z,5.18
2022-10-17T17:21:17.169Z,5.00
2022-10-17T17:23:34.211Z,5.53
2022-10-17T17:25:51.357Z,5.72
2022-10-17T17:28:08.477Z,5.45
2022-10-17T17:30:25.779Z,5.82
2022-10-17T17:32:42.823Z,6.60
2022-10-17T17:34:59.739Z,6.22
2022-10-17T17:37:16.628Z,5.65
2022-10-17T17:39:33.672Z,5.50
2022-10-17T17:41:50.659Z,5.30
2022-10-17T17:44:10.160Z,5.40
2022-10-17T17:46:29.381Z,5.72
2022-10-17T17:48:46.383Z,5.30
2022-10-17T17:51:03.425Z,5.88
2022-10-17T17:53:20.351Z,5.50
2022-10-17T17:55:37.423Z,5.45
2022-10-17T17:57:54.302Z,5.75
2022-10-17T18:00:11.230Z,5.85
2022-10-17T18:02:28.367Z,5.38
2022-10-17T18:04:45.377Z,5.18
2022-10-17T18:07:02.347Z,5.70
2022-10-17T18:09:19.204Z,5.50
2022-10-17T18:11:36.078Z,6.05
2022-10-17T18:13:55.854Z,6.35
2022-10-17T18:16:12.834Z,6.50
2022-10-17T18:18:29.742Z,7.03
2022-10-17T18:20:46.683Z,5.78
2022-10-17T18:23:04.308Z,7.03
2022-10-17T18:25:21.302Z,6.18
2022-10-17T18:27:38.787Z,5.82
2022-10-17T18:29:55.632Z,7.00
2022-10-17T18:32:12.630Z,5.78
2022-10-17T18:34:29.568Z,6.07
2022-10-17T18:36:46.489Z,6.57
2022-10-17T18:39:03.501Z,5.75
2022-10-17T18:41:20.386Z,5.90
2022-10-17T18:43:37.581Z,5.72
2022-10-17T18:45:54.501Z,5.93
2022-10-17T18:48:11.455Z,6.30
2022-10-17T18:50:28.481Z,6.00
2022-10-17T18:52:45.355Z,6.43
2022-10-17T18:55:02.499Z,6.10
2022-10-17T18:57:21.495Z,6.10
2022-10-17T18:59:40.913Z,6.05
2022-10-17T19:01:58.139Z,5.90
2022-10-17T19:04:15.183Z,6.13
2022-10-17T19:06:32.184Z,5.90
2022-10-17T19:08:49.135Z,6.15
2022-10-17T19:11:06.037Z,6.65
2022-10-17T19:13:23.010Z,6.65
2022-10-17T19:15:39.887Z,6.18
2022-10-17T19:17:57.151Z,5.78
2022-10-17T19:20:14.162Z,5.80
2022-10-17T19:22:31.000Z,6.00
2022-10-17T19:24:47.829Z,5.95
2022-10-17T19:27:04.867Z,7.13
2022-10-17T19:29:21.877Z,7.03
2022-10-17T19:31:38.717Z,6.78
2022-10-17T19:33:55.723Z,6.13
2022-10-17T19:36:12.744Z,6.15
2022-10-17T19:38:29.668Z,5.97
2022-10-17T19:40:46.626Z,6.35
2022-10-17T19:43:03.620Z,6.20
2022-10-17T19:45:20.730Z,6.07
2022-10-17T19:47:37.583Z,6.63
2022-10-17T19:49:54.490Z,6.57
2022-10-17T19:52:11.530Z,7.53
2022-10-17T19:54:28.451Z,6.82
2022-10-17T19:56:45.302Z,6.10
2022-10-17T19:59:02.183Z,5.63
2022-10-17T20:01:19.073Z,6.25
2022-10-17T20:03:36.033Z,6.70
2022-10-17T20:05:52.989Z,7.10
2022-10-17T20:08:09.830Z,6.90
2022-10-17T20:10:26.778Z,6.65
2022-10-17T20:12:43.606Z,6.40
2022-10-17T20:15:00.421Z,7.20
2022-10-17T20:17:17.321Z,6.93
2022-10-17T20:19:34.156Z,5.68
2022-10-17T20:21:51.046Z,5.97
2022-10-17T20:24:07.909Z,6.22
2022-10-17T20:26:37.009Z,6.65
2022-10-17T20:28:54.495Z,7.70
2022-10-17T20:31:11.527Z,7.57
2022-10-17T20:33:31.793Z,7.63
2022-10-17T20:35:48.936Z,8.45
2022-10-17T20:38:05.832Z,7.35
2022-10-17T20:40:34.828Z,7.82
2022-10-17T20:42:52.412Z,7.63
2022-10-17T20:45:09.282Z,7.28
2022-10-17T20:47:43.557Z,7.47
2022-10-17T20:50:02.160Z,7.72
2022-10-17T20:52:19.012Z,7.13
2022-10-17T20:54:36.694Z,7.35
2022-10-17T20:56:53.503Z,7.03
2022-10-17T20:59:10.620Z,7.00
2022-10-17T21:01:27.525Z,7.15
2022-10-17T21:03:46.484Z,7.13
2022-10-17T21:06:04.006Z,7.53
2022-10-17T21:08:20.877Z,7.18
2022-10-17T21:10:38.021Z,7.15
2022-10-17T21:12:54.892Z,6.93
2022-10-17T21:15:11.921Z,6.40
2022-10-17T21:17:29.081Z,6.68
2022-10-17T21:19:46.042Z,7.03
2022-10-17T21:22:03.063Z,6.93
2022-10-17T21:24:20.147Z,7.05
2022-10-17T21:26:37.217Z,6.32
2022-10-17T21:28:55.201Z,6.78
2022-10-17T21:31:13.475Z,6.43
2022-10-17T21:33:30.760Z,6.70
2022-10-17T21:35:47.977Z,6.65
2022-10-17T21:38:04.939Z,6.70
2022-10-17T21:40:21.888Z,6.25
2022-10-17T21:42:38.916Z,6.20
2022-10-17T21:44:55.952Z,6.35
2022-10-17T21:47:13.003Z,6.80
2022-10-17T21:49:30.255Z,6.90
2022-10-17T21:51:48.333Z,5.85
2022-10-17T21:54:05.973Z,5.97
2022-10-17T21:56:23.187Z,6.90
2022-10-17T21:58:44.405Z,6.70
2022-10-17T22:01:01.381Z,6.68
2022-10-17T22:03:19.669Z,7.30
2022-10-17T22:05:36.912Z,7.47
2022-10-17T22:07:53.942Z,7.35
2022-10-17T22:10:10.930Z,9.05
2022-10-17T22:12:28.374Z,8.35
2022-10-17T22:14:46.030Z,8.02
2022-10-17T22:17:03.478Z,7.35
2022-10-17T22:19:20.800Z,7.95
2022-10-17T22:21:37.767Z,6.80
2022-10-17T22:26:25.973Z,7.05
2022-10-17T22:28:43.022Z,6.78
2022-10-17T22:31:00.525Z,6.07
2022-10-17T22:33:17.542Z,6.25
2022-10-17T22:35:34.612Z,6.70
2022-10-17T22:37:51.690Z,6.55
2022-10-17T22:40:08.956Z,6.55
2022-10-17T22:42:26.353Z,6.30
2022-10-17T22:44:43.376Z,6.63
2022-10-17T22:47:01.304Z,6.55
2022-10-17T22:49:19.680Z,6.55
2022-10-17T22:51:37.188Z,6.25
2022-10-17T22:53:55.264Z,6.95
2022-10-17T22:56:12.245Z,6.22
2022-10-17T22:58:29.317Z,6.22
2022-10-17T23:00:46.260Z,7.30
2022-10-17T23:03:04.314Z,6.32
2022-10-17T23:05:25.741Z,6.97
2022-10-17T23:07:43.743Z,7.30
2022-10-17T23:10:00.791Z,7.07
2022-10-17T23:12:18.126Z,6.38
2022-10-17T23:14:35.064Z,6.63
2022-10-17T23:16:52.301Z,6.30
2022-10-17T23:19:10.335Z,6.72
2022-10-17T23:21:32.077Z,6.32
2022-10-17T23:23:49.016Z,6.47
2022-10-17T23:26:07.072Z,7.07
2022-10-17T23:28:24.180Z,6.85
2022-10-17T23:30:41.518Z,7.05
2022-10-17T23:32:58.807Z,6.50
2022-10-17T23:35:17.109Z,7.40
2022-10-17T23:37:34.081Z,7.30
2022-10-17T23:39:51.365Z,6.40
2022-10-17T23:42:08.698Z,6.60
2022-10-17T23:44:25.748Z,6.93
2022-10-17T23:46:44.059Z,7.00
2022-10-17T23:49:01.343Z,6.82
2022-10-17T23:51:18.189Z,6.38
2022-10-17T23:53:35.480Z,6.55
2022-10-17T23:55:52.884Z,7.90
2022-10-17T23:58:09.913Z,6.68
